Time;durP1;ratioP1;P1;durP2;ratioP2;P2;SDS_P1;SDS_P2;PMS_P1;PMS_P2;Temp;Humidity;BMP_temperature;BMP_pressure;BME280_temperature;BME280_humidity;BME280_pressure;Samples;Min_cycle;Max_cycle;Signal;HPM_P1;HPM_P2
2023/05/07 00:00:56;;;;;;;;;;;23.10;56.50;;;;;;1537851;76;1929;-65
2023/05/07 00:02:58;;;;;;;;;;;23.10;56.30;;;;;;1545294;75;726;-66
2023/05/07 00:04:59;;;;;;;;;;;23.10;56.30;;;;;;1554790;75;769;-65
2023/05/07 00:07:02;;;;;;;;;;;23.10;56.50;;;;;;1557570;75;1160;-65
2023/05/07 00:09:04;;;;;;;;;;;23.10;56.50;;;;;;1552498;75;758;-66
2023/05/07 00:11:06;;;;;;;;;;;23.20;56.50;;;;;;1554289;75;769;-65
2023/05/07 00:13:08;;;;;;;;;;;23.10;56.50;;;;;;1550593;74;804;-67
2023/05/07 00:15:09;;;;;;;;;;;23.20;56.40;;;;;;1549095;75;1486;-67
2023/05/07 00:17:11;;;;;;;;;;;23.10;56.30;;;;;;1549557;75;1101;-67
2023/05/07 00:19:13;;;;;;;;;;;23.20;56.30;;;;;;1551344;75;760;-67
2023/05/07 00:21:15;;;;;;;;;;;23.10;56.30;;;;;;1564021;75;1934;-66
2023/05/07 00:23:17;;;;;;;;;;;23.20;56.40;;;;;;1563565;75;701;-67
2023/05/07 00:25:19;;;;;;;;;;;23.20;56.30;;;;;;1554346;75;1208;-66
2023/05/07 00:27:21;;;;;;;;;;;23.10;56.30;;;;;;1558928;74;756;-69
2023/05/07 00:29:23;;;;;;;;;;;23.20;56.40;;;;;;1559428;76;1552;-69
2023/05/07 00:31:25;;;;;;;;;;;23.20;56.50;;;;;;1555626;75;755;-69
2023/05/07 00:33:27;;;;;;;;;;;23.20;56.40;;;;;;1557430;75;798;-66
2023/05/07 00:35:29;;;;;;;;;;;23.20;56.60;;;;;;1559560;75;1194;-65
2023/05/07 00:37:31;;;;;;;;;;;23.20;56.50;;;;;;1555790;75;747;-65
2023/05/07 00:39:33;;;;;;;;;;;23.20;56.50;;;;;;1555398;75;764;-65
2023/05/07 00:41:35;;;;;;;;;;;23.20;56.40;;;;;;1546413;75;1939;-67
2023/05/07 00:43:37;;;;;;;;;;;23.20;56.30;;;;;;1559375;75;1562;-68
2023/05/07 00:45:39;;;;;;;;;;;23.20;56.40;;;;;;1564233;75;1167;-69
2023/05/07 00:47:41;;;;;;;;;;;23.20;56.40;;;;;;1558080;75;755;-65
2023/05/07 00:49:43;;;;;;;;;;;23.20;56.40;;;;;;1557488;75;759;-66
2023/05/07 00:51:45;;;;;;;;;;;23.20;56.30;;;;;;1552295;75;779;-66
2023/05/07 00:53:47;;;;;;;;;;;23.20;56.30;;;;;;1554149;75;755;-63
2023/05/07 00:55:49;;;;;;;;;;;23.20;56.30;;;;;;1555799;75;1320;-65
2023/05/07 00:57:51;;;;;;;;;;;23.30;56.30;;;;;;1561834;75;747;-64
2023/05/07 00:59:53;;;;;;;;;;;23.30;56.30;;;;;;1568139;75;764;-65
2023/05/07 01:01:54;;;;;;;;;;;23.30;56.30;;;;;;1567936;75;1942;-65
2023/05/07 01:03:57;;;;;;;;;;;23.30;56.30;;;;;;1558531;75;813;-65
2023/05/07 01:05:59;;;;;;;;;;;23.30;56.20;;;;;;1562388;75;1182;-64
2023/05/07 01:08:01;;;;;;;;;;;23.20;56.30;;;;;;1553031;75;769;-65
2023/05/07 01:10:03;;;;;;;;;;;23.30;56.30;;;;;;1565619;74;1467;-66
2023/05/07 01:12:05;;;;;;;;;;;23.30;56.40;;;;;;1563833;74;753;-66
2023/05/07 01:14:07;;;;;;;;;;;23.20;56.30;;;;;;1554660;75;749;-66
2023/05/07 01:16:09;;;;;;;;;;;23.20;56.30;;;;;;1565690;75;1185;-66
2023/05/07 01:18:11;;;;;;;;;;;23.20;56.40;;;;;;1545807;75;742;-66
2023/05/07 01:20:13;;;;;;;;;;;23.20;56.80;;;;;;1564831;75;961;-66
2023/05/07 01:22:16;;;;;;;;;;;23.20;56.70;;;;;;1560943;75;1959;-67
2023/05/07 01:24:17;;;;;;;;;;;23.20;56.80;;;;;;1561224;75;1419;-67
2023/05/07 01:26:19;;;;;;;;;;;23.20;56.80;;;;;;1555562;74;1206;-69
2023/05/07 01:28:21;;;;;;;;;;;23.20;56.80;;;;;;1556342;75;754;-67
2023/05/07 01:30:23;;;;;;;;;;;23.20;56.90;;;;;;1558429;75;750;-68
2023/05/07 01:32:29;;;;;;;;;;;23.20;56.80;;;;;;1555636;75;691;-68
2023/05/07 01:34:31;;;;;;;;;;;23.20;56.70;;;;;;1565518;75;744;-68
2023/05/07 01:36:33;;;;;;;;;;;23.20;56.60;;;;;;1559149;75;1249;-68
2023/05/07 01:38:35;;;;;;;;;;;23.20;56.60;;;;;;1558807;75;1411;-67
2023/05/07 01:40:37;;;;;;;;;;;23.10;56.60;;;;;;1570383;74;760;-66
2023/05/07 01:42:39;;;;;;;;;;;23.20;56.50;;;;;;1567752;75;1934;-66
2023/05/07 01:44:41;;;;;;;;;;;23.20;56.50;;;;;;1564191;75;810;-69
2023/05/07 01:46:43;;;;;;;;;;;23.20;56.50;;;;;;1555401;75;1156;-66
2023/05/07 01:48:45;;;;;;;;;;;23.20;56.60;;;;;;1561903;75;759;-66
2023/05/07 01:50:47;;;;;;;;;;;23.20;56.40;;;;;;1563442;75;752;-66
2023/05/07 01:52:50;;;;;;;;;;;23.20;56.40;;;;;;1561923;75;1408;-66
2023/05/07 01:54:52;;;;;;;;;;;23.20;56.30;;;;;;1522032;76;812;-67
2023/05/07 01:56:54;;;;;;;;;;;23.30;56.30;;;;;;1562416;75;1137;-70
2023/05/07 01:58:55;;;;;;;;;;;23.30;56.30;;;;;;1564796;75;795;-68
2023/05/07 02:00:57;;;;;;;;;;;23.30;56.40;;;;;;1550842;75;754;-68
2023/05/07 02:02:59;;;;;;;;;;;23.30;56.40;;;;;;1563301;75;1937;-68
2023/05/07 02:05:01;;;;;;;;;;;23.30;56.50;;;;;;1564027;75;779;-69
2023/05/07 02:07:03;;;;;;;;;;;23.20;56.30;;;;;;1564132;75;1299;-68
2023/05/07 02:09:05;;;;;;;;;;;23.20;56.70;;;;;;1554636;75;753;-66
2023/05/07 02:11:07;;;;;;;;;;;23.20;56.60;;;;;;1560320;75;753;-66
2023/05/07 02:13:09;;;;;;;;;;;23.20;56.50;;;;;;1559295;75;807;-66
2023/05/07 02:15:11;;;;;;;;;;;23.20;56.50;;;;;;1566837;75;795;-66
2023/05/07 02:17:13;;;;;;;;;;;23.20;56.30;;;;;;1554215;75;1085;-67
2023/05/07 02:19:15;;;;;;;;;;;23.20;56.30;;;;;;1555239;75;685;-67
2023/05/07 02:21:16;;;;;;;;;;;23.20;56.20;;;;;;1558915;75;1479;-67
2023/05/07 02:23:18;;;;;;;;;;;23.20;56.30;;;;;;1553661;75;1940;-68
2023/05/07 02:25:20;;;;;;;;;;;23.20;56.40;;;;;;1554218;74;1201;-67
2023/05/07 02:27:22;;;;;;;;;;;23.20;56.40;;;;;;1552224;75;788;-69
2023/05/07 02:29:24;;;;;;;;;;;23.20;56.30;;;;;;1552271;75;766;-66
2023/05/07 02:31:26;;;;;;;;;;;23.20;56.30;;;;;;1558785;75;747;-66
2023/05/07 02:33:28;;;;;;;;;;;23.20;56.30;;;;;;1552052;75;656;-65
2023/05/07 02:35:30;;;;;;;;;;;23.20;56.20;;;;;;1558242;75;1407;-65
2023/05/07 02:37:31;;;;;;;;;;;23.20;56.10;;;;;;1551672;75;806;-66
2023/05/07 02:39:33;;;;;;;;;;;23.20;56.20;;;;;;1552745;75;769;-66
2023/05/07 02:41:35;;;;;;;;;;;23.20;56.20;;;;;;1560802;75;1934;-66
2023/05/07 02:43:37;;;;;;;;;;;23.20;56.50;;;;;;1566516;75;750;-66
2023/05/07 02:45:39;;;;;;;;;;;23.20;56.40;;;;;;1566663;75;1168;-66
2023/05/07 02:47:41;;;;;;;;;;;23.20;56.30;;;;;;1545256;75;710;-66
2023/05/07 02:49:43;;;;;;;;;;;23.20;56.30;;;;;;1556972;75;1318;-67
2023/05/07 02:51:45;;;;;;;;;;;23.20;56.30;;;;;;1566028;75;777;-66
2023/05/07 02:53:47;;;;;;;;;;;23.20;56.40;;;;;;1552306;74;683;-68
2023/05/07 02:55:48;;;;;;;;;;;23.20;56.40;;;;;;1557505;75;1169;-66
2023/05/07 02:57:50;;;;;;;;;;;23.20;56.30;;;;;;1560248;75;648;-65
2023/05/07 02:59:52;;;;;;;;;;;23.20;56.30;;;;;;1557806;75;749;-65
2023/05/07 03:01:54;;;;;;;;;;;23.20;56.40;;;;;;1549933;75;1938;-65
2023/05/07 03:03:56;;;;;;;;;;;23.20;56.30;;;;;;1555605;75;1453;-64
2023/05/07 03:05:58;;;;;;;;;;;23.20;56.20;;;;;;1557724;75;1240;-65
2023/05/07 03:08:00;;;;;;;;;;;23.20;56.30;;;;;;1564823;74;791;-65
2023/05/07 03:10:02;;;;;;;;;;;23.20;56.30;;;;;;1545911;75;763;-67
2023/05/07 03:12:03;;;;;;;;;;;23.20;56.30;;;;;;1562257;75;731;-66
2023/05/07 03:14:05;;;;;;;;;;;23.20;56.40;;;;;;1546273;75;797;-66
2023/05/07 03:16:07;;;;;;;;;;;23.20;56.50;;;;;;1550180;75;1288;-66
2023/05/07 03:18:09;;;;;;;;;;;23.20;56.60;;;;;;1562078;75;1535;-66
2023/05/07 03:20:11;;;;;;;;;;;23.10;56.50;;;;;;1551467;75;756;-66
2023/05/07 03:22:13;;;;;;;;;;;23.10;56.80;;;;;;1558919;74;1944;-68
2023/05/07 03:24:15;;;;;;;;;;;23.10;56.70;;;;;;1558383;75;761;-67
2023/05/07 03:26:17;;;;;;;;;;;23.10;56.70;;;;;;1529309;77;1213;-66
2023/05/07 03:28:19;;;;;;;;;;;23.20;56.90;;;;;;1548400;76;721;-67
2023/05/07 03:30:21;;;;;;;;;;;23.10;56.80;;;;;;1553558;76;800;-66
2023/05/07 03:32:22;;;;;;;;;;;23.10;57.00;;;;;;1546791;76;1435;-66
2023/05/07 03:34:24;;;;;;;;;;;23.20;56.80;;;;;;1557008;75;761;-66
2023/05/07 03:36:27;;;;;;;;;;;23.20;56.80;;;;;;1551044;75;1266;-67
2023/05/07 03:38:29;;;;;;;;;;;23.20;56.80;;;;;;1549771;74;756;-66
2023/05/07 03:40:31;;;;;;;;;;;23.40;56.80;;;;;;1561819;75;808;-66
2023/05/07 03:42:32;;;;;;;;;;;23.20;56.80;;;;;;1564341;74;1957;-67
2023/05/07 03:44:36;;;;;;;;;;;23.10;56.80;;;;;;1561859;75;1421;-68
2023/05/07 03:46:38;;;;;;;;;;;23.20;56.80;;;;;;1561698;74;1183;-67
2023/05/07 03:48:40;;;;;;;;;;;23.20;56.80;;;;;;1559111;75;748;-67
2023/05/07 03:50:42;;;;;;;;;;;23.10;56.80;;;;;;1561044;75;783;-67
2023/05/07 03:52:44;;;;;;;;;;;23.20;56.80;;;;;;1557641;75;780;-67
2023/05/07 03:54:46;;;;;;;;;;;23.20;56.70;;;;;;1562475;74;763;-67
2023/05/07 03:56:48;;;;;;;;;;;23.20;56.60;;;;;;1564374;75;1184;-67
2023/05/07 03:58:49;;;;;;;;;;;23.10;56.70;;;;;;1558959;74;1374;-67
2023/05/07 04:00:51;;;;;;;;;;;23.10;56.80;;;;;;1565704;74;774;-67
2023/05/07 04:02:53;;;;;;;;;;;23.20;57.00;;;;;;1561490;75;1935;-69
2023/05/07 04:04:55;;;;;;;;;;;23.10;57.10;;;;;;1566068;75;790;-68
2023/05/07 04:06:57;;;;;;;;;;;23.10;57.10;;;;;;1563365;74;1187;-68
2023/05/07 04:08:59;;;;;;;;;;;23.10;57.00;;;;;;1568446;74;752;-68
2023/05/07 04:11:01;;;;;;;;;;;23.10;56.90;;;;;;1569797;74;812;-70
2023/05/07 04:13:03;;;;;;;;;;;23.10;57.00;;;;;;1569375;74;1436;-76
2023/05/07 04:15:05;;;;;;;;;;;23.10;57.00;;;;;;1563087;74;751;-68
2023/05/07 04:19:14;;;;;;;;;;;23.20;56.90;;;;;;1526760;76;605;-71
2023/05/07 04:21:18;;;;;;;;;;;23.20;57.00;;;;;;1548421;75;766;-70
2023/05/07 04:23:20;;;;;;;;;;;23.10;57.00;;;;;;1547543;76;1955;-69
2023/05/07 04:25:22;;;;;;;;;;;23.10;57.10;;;;;;1553289;76;661;-70
2023/05/07 04:27:24;;;;;;;;;;;23.10;57.50;;;;;;1552835;74;1309;-67
2023/05/07 04:29:26;;;;;;;;;;;23.10;57.20;;;;;;1558022;74;757;-67
2023/05/07 04:31:28;;;;;;;;;;;23.10;57.20;;;;;;1569438;74;754;-69
2023/05/07 04:33:30;;;;;;;;;;;23.10;57.10;;;;;;1558864;74;782;-69
2023/05/07 04:35:32;;;;;;;;;;;23.10;57.10;;;;;;1565690;74;759;-70
2023/05/07 04:37:34;;;;;;;;;;;23.10;57.50;;;;;;1548930;74;1169;-70
2023/05/07 04:39:36;;;;;;;;;;;23.10;57.40;;;;;;1558187;74;742;-70
2023/05/07 04:41:38;;;;;;;;;;;23.10;57.60;;;;;;1562713;74;1433;-70
2023/05/07 04:43:41;;;;;;;;;;;23.10;57.40;;;;;;1558001;74;1941;-70
2023/05/07 04:45:43;;;;;;;;;;;23.20;57.30;;;;;;1553226;74;780;-70
2023/05/07 04:47:45;;;;;;;;;;;23.20;57.30;;;;;;1563197;74;1255;-70
2023/05/07 04:49:47;;;;;;;;;;;23.20;57.20;;;;;;1570990;74;773;-71
2023/05/07 04:51:49;;;;;;;;;;;23.20;57.20;;;;;;1567138;74;857;-70
2023/05/07 04:53:51;;;;;;;;;;;23.20;57.00;;;;;;1552558;75;736;-69
2023/05/07 04:55:56;;;;;;;;;;;23.30;57.10;;;;;;1565587;74;1285;-69
2023/05/07 04:58:00;;;;;;;;;;;23.20;56.90;;;;;;1566464;74;1168;-69
2023/05/07 05:00:04;;;;;;;;;;;23.30;57.10;;;;;;1564013;74;778;-66
2023/05/07 05:02:05;;;;;;;;;;;23.20;57.10;;;;;;1562621;74;731;-70
2023/05/07 05:04:07;;;;;;;;;;;23.20;57.30;;;;;;1553247;74;1946;-66
2023/05/07 05:06:09;;;;;;;;;;;23.20;57.80;;;;;;1554584;75;800;-67
2023/05/07 05:08:11;;;;;;;;;;;23.10;57.80;;;;;;1564540;74;1198;-70
2023/05/07 05:10:13;;;;;;;;;;;23.20;57.70;;;;;;1562043;74;1432;-68
2023/05/07 05:12:15;;;;;;;;;;;23.10;57.60;;;;;;1574624;74;865;-67
2023/05/07 05:14:17;;;;;;;;;;;23.10;57.50;;;;;;1567198;75;722;-69
2023/05/07 05:16:19;;;;;;;;;;;23.10;57.10;;;;;;1575300;74;746;-68
2023/05/07 05:18:21;;;;;;;;;;;23.10;57.50;;;;;;1571227;74;1124;-68
2023/05/07 05:20:23;;;;;;;;;;;23.10;57.30;;;;;;1569955;75;521;-72
2023/05/07 05:22:25;;;;;;;;;;;23.10;56.80;;;;;;1579571;74;781;-71
2023/05/07 05:24:27;;;;;;;;;;;23.10;56.80;;;;;;1570497;74;1986;-71
2023/05/07 05:26:29;;;;;;;;;;;23.10;56.80;;;;;;1575828;74;755;-71
2023/05/07 05:28:31;;;;;;;;;;;23.10;56.70;;;;;;1570601;73;1178;-72
2023/05/07 05:30:33;;;;;;;;;;;23.10;56.60;;;;;;1573941;74;792;-71
2023/05/07 05:32:35;;;;;;;;;;;23.10;56.60;;;;;;1575159;74;780;-67
2023/05/07 05:34:36;;;;;;;;;;;23.10;56.70;;;;;;1575310;74;786;-72
2023/05/07 05:36:38;;;;;;;;;;;23.00;56.50;;;;;;1571357;74;740;-71
2023/05/07 05:38:40;;;;;;;;;;;23.10;56.70;;;;;;1574613;74;1357;-68
2023/05/07 05:40:42;;;;;;;;;;;23.10;56.70;;;;;;1573309;74;758;-71
2023/05/07 05:42:44;;;;;;;;;;;23.10;56.70;;;;;;1575334;74;1924;-73
2023/05/07 05:44:46;;;;;;;;;;;23.10;56.70;;;;;;1575538;74;761;-71
2023/05/07 05:46:49;;;;;;;;;;;23.10;56.70;;;;;;1570225;74;813;-70
2023/05/07 05:48:51;;;;;;;;;;;23.10;56.80;;;;;;1569547;74;1232;-71
2023/05/07 05:50:53;;;;;;;;;;;23.10;56.80;;;;;;1572975;74;708;-71
2023/05/07 05:52:55;;;;;;;;;;;23.10;56.80;;;;;;1569098;74;1554;-73
2023/05/07 05:54:57;;;;;;;;;;;23.00;56.90;;;;;;1569106;74;776;-68
2023/05/07 05:56:58;;;;;;;;;;;23.20;56.80;;;;;;1558601;74;691;-71
2023/05/07 05:59:00;;;;;;;;;;;23.10;56.70;;;;;;1562748;74;1193;-70
2023/05/07 06:01:02;;;;;;;;;;;23.10;56.60;;;;;;1570664;74;767;-70
2023/05/07 06:03:04;;;;;;;;;;;23.10;56.60;;;;;;1567221;74;1939;-71
2023/05/07 06:05:06;;;;;;;;;;;23.10;56.60;;;;;;1575889;74;780;-70
2023/05/07 06:07:09;;;;;;;;;;;23.10;56.60;;;;;;1567963;74;1173;-72
2023/05/07 06:09:11;;;;;;;;;;;23.20;56.50;;;;;;1571426;74;773;-72
2023/05/07 06:11:12;;;;;;;;;;;23.20;56.50;;;;;;1556745;74;759;-74
2023/05/07 06:13:14;;;;;;;;;;;23.20;56.40;;;;;;1573432;74;761;-72
2023/05/07 06:15:16;;;;;;;;;;;23.20;56.40;;;;;;1577379;74;774;-71
2023/05/07 06:17:18;;;;;;;;;;;23.30;56.40;;;;;;1573345;75;1236;-66
2023/05/07 06:19:23;;;;;;;;;;;23.20;56.30;;;;;;1576226;74;1381;-69
2023/05/07 06:21:23;;;;;;;;;;;23.30;56.40;;;;;;1573306;74;1699;-68
2023/05/07 06:23:25;;;;;;;;;;;23.30;56.30;;;;;;1570922;74;1934;-68
2023/05/07 06:25:27;;;;;;;;;;;23.30;56.50;;;;;;1574355;74;785;-70
2023/05/07 06:27:29;;;;;;;;;;;23.30;56.60;;;;;;1574652;74;1177;-64
2023/05/07 06:29:33;;;;;;;;;;;23.20;56.90;;;;;;1575789;74;769;-63
2023/05/07 06:31:35;;;;;;;;;;;23.10;56.80;;;;;;1574528;74;892;-65
2023/05/07 06:33:36;;;;;;;;;;;23.10;56.40;;;;;;1568411;75;1460;-64
2023/05/07 06:35:38;;;;;;;;;;;23.10;55.60;;;;;;1566208;74;741;-64
2023/05/07 06:37:42;;;;;;;;;;;23.10;56.30;;;;;;1570797;74;1169;-65
2023/05/07 06:39:44;;;;;;;;;;;23.00;56.00;;;;;;1570662;74;1128;-63
2023/05/07 06:41:46;;;;;;;;;;;23.10;56.30;;;;;;1575404;74;1400;-63
2023/05/07 06:43:48;;;;;;;;;;;23.10;56.30;;;;;;1573482;74;1950;-65
2023/05/07 06:45:49;;;;;;;;;;;23.00;56.00;;;;;;1572224;74;1264;-63
2023/05/07 06:47:51;;;;;;;;;;;23.20;56.30;;;;;;1573017;74;1374;-63
2023/05/07 06:49:53;;;;;;;;;;;23.20;55.80;;;;;;1570431;74;1221;-64
2023/05/07 06:51:55;;;;;;;;;;;23.40;55.70;;;;;;1574551;74;1374;-64
2023/05/07 06:53:57;;;;;;;;;;;23.40;55.50;;;;;;1576731;74;1124;-61
2023/05/07 06:55:59;;;;;;;;;;;23.50;54.20;;;;;;1568709;74;1350;-62
2023/05/07 06:58:01;;;;;;;;;;;23.50;53.50;;;;;;1569124;74;1391;-63
2023/05/07 07:00:04;;;;;;;;;;;23.50;52.80;;;;;;1566585;74;1343;-62
2023/05/07 07:02:05;;;;;;;;;;;23.60;53.60;;;;;;1575249;74;1377;-62
2023/05/07 07:04:07;;;;;;;;;;;23.50;53.60;;;;;;1570060;74;1934;-62
2023/05/07 07:06:09;;;;;;;;;;;23.60;53.30;;;;;;1578868;74;1383;-60
2023/05/07 07:08:11;;;;;;;;;;;23.70;53.00;;;;;;1580293;74;1187;-62
2023/05/07 07:10:13;;;;;;;;;;;23.70;53.00;;;;;;1569440;74;1551;-63
2023/05/07 07:12:15;;;;;;;;;;;23.80;52.70;;;;;;1574714;75;1390;-64
2023/05/07 07:14:17;;;;;;;;;;;23.80;52.80;;;;;;1566139;74;1423;-64
2023/05/07 07:16:19;;;;;;;;;;;23.90;51.80;;;;;;1572214;74;1262;-63
2023/05/07 07:18:21;;;;;;;;;;;23.90;52.10;;;;;;1574616;74;1252;-63
2023/05/07 07:20:22;;;;;;;;;;;23.90;52.20;;;;;;1568720;74;1379;-64
2023/05/07 07:22:24;;;;;;;;;;;24.00;52.20;;;;;;1576071;74;1368;-63
2023/05/07 07:24:26;;;;;;;;;;;24.00;52.00;;;;;;1572717;74;1946;-63
2023/05/07 07:26:28;;;;;;;;;;;24.20;52.00;;;;;;1572674;74;1223;-63
2023/05/07 07:28:30;;;;;;;;;;;24.20;51.70;;;;;;1570271;74;1389;-64
2023/05/07 07:30:32;;;;;;;;;;;24.10;50.10;;;;;;1574827;74;1421;-64
2023/05/07 07:32:34;;;;;;;;;;;24.10;50.30;;;;;;1571052;75;1232;-63
2023/05/07 07:34:36;;;;;;;;;;;24.10;51.30;;;;;;1573205;74;1394;-63
2023/05/07 07:36:38;;;;;;;;;;;24.10;51.30;;;;;;1572585;74;1367;-62
2023/05/07 07:38:40;;;;;;;;;;;24.20;51.20;;;;;;1570619;74;1223;-60
2023/05/07 07:40:43;;;;;;;;;;;24.20;50.50;;;;;;1573389;74;1391;-62
2023/05/07 07:42:45;;;;;;;;;;;24.20;50.90;;;;;;1576100;74;1383;-61
2023/05/07 07:44:47;;;;;;;;;;;24.20;50.90;;;;;;1578462;74;1961;-62
2023/05/07 07:46:50;;;;;;;;;;;24.20;49.90;;;;;;1575894;74;1386;-62
2023/05/07 07:48:52;;;;;;;;;;;24.20;49.80;;;;;;1573242;74;1176;-64
2023/05/07 07:50:54;;;;;;;;;;;24.10;49.90;;;;;;1574354;74;1411;-62
2023/05/07 07:52:56;;;;;;;;;;;24.10;50.50;;;;;;1570401;74;1391;-63
2023/05/07 07:54:57;;;;;;;;;;;24.20;50.40;;;;;;1572934;74;1093;-61
2023/05/07 07:57:01;;;;;;;;;;;24.20;49.70;;;;;;1574321;74;1498;-62
2023/05/07 07:59:03;;;;;;;;;;;24.10;48.60;;;;;;1567924;74;1392;-62
2023/05/07 08:01:04;;;;;;;;;;;24.00;48.90;;;;;;1571039;74;1328;-62
2023/05/07 08:03:07;;;;;;;;;;;24.00;49.70;;;;;;1571365;74;1404;-60
2023/05/07 08:05:08;;;;;;;;;;;24.10;49.70;;;;;;1574486;74;1950;-62
2023/05/07 08:07:10;;;;;;;;;;;24.00;48.70;;;;;;1578524;74;1388;-62
2023/05/07 08:09:12;;;;;;;;;;;24.00;48.70;;;;;;1573974;74;1230;-62
2023/05/07 08:11:14;;;;;;;;;;;23.90;49.70;;;;;;1566657;74;1237;-61
2023/05/07 08:13:16;;;;;;;;;;;24.00;49.90;;;;;;1569450;74;1449;-60
2023/05/07 08:15:18;;;;;;;;;;;24.00;48.50;;;;;;1574636;74;1490;-62
2023/05/07 08:17:22;;;;;;;;;;;24.00;49.70;;;;;;1572097;74;1360;-58
2023/05/07 08:19:23;;;;;;;;;;;24.10;50.00;;;;;;1566746;74;1106;-61
2023/05/07 08:21:26;;;;;;;;;;;24.10;48.80;;;;;;1568434;74;1155;-62
2023/05/07 08:23:27;;;;;;;;;;;24.10;49.40;;;;;;1575093;74;1377;-63
2023/05/07 08:25:29;;;;;;;;;;;24.00;49.10;;;;;;1575422;74;1946;-63
2023/05/07 08:27:31;;;;;;;;;;;24.00;47.90;;;;;;1575299;74;1441;-59
2023/05/07 08:29:33;;;;;;;;;;;23.90;48.90;;;;;;1578817;74;1515;-63
2023/05/07 08:31:35;;;;;;;;;;;23.90;49.40;;;;;;1572862;74;1381;-63
2023/05/07 08:33:38;;;;;;;;;;;24.00;47.90;;;;;;1572460;74;1279;-64
2023/05/07 08:35:40;;;;;;;;;;;23.90;48.60;;;;;;1571783;74;1102;-60
2023/05/07 08:37:42;;;;;;;;;;;23.90;48.60;;;;;;1569876;75;1410;-63
2023/05/07 08:39:43;;;;;;;;;;;23.90;49.10;;;;;;1572467;74;1257;-64
2023/05/07 08:41:48;;;;;;;;;;;24.00;48.50;;;;;;1568069;74;1456;-64
2023/05/07 08:43:50;;;;;;;;;;;24.00;48.90;;;;;;1574823;74;1970;-63
2023/05/07 08:45:54;;;;;;;;;;;23.90;48.50;;;;;;1572216;74;1392;-63
2023/05/07 08:47:58;;;;;;;;;;;23.90;47.70;;;;;;1582144;74;1529;-60
2023/05/07 08:50:00;;;;;;;;;;;23.90;48.60;;;;;;1569132;74;1212;-62
2023/05/07 08:52:02;;;;;;;;;;;23.90;47.90;;;;;;1571117;74;1383;-62
2023/05/07 08:54:04;;;;;;;;;;;23.90;48.40;;;;;;1573884;74;1399;-62
2023/05/07 08:56:06;;;;;;;;;;;23.90;48.10;;;;;;1572771;74;1363;-63
2023/05/07 08:58:08;;;;;;;;;;;23.90;48.70;;;;;;1570492;74;1375;-63
2023/05/07 09:00:10;;;;;;;;;;;23.90;48.00;;;;;;1573684;74;1260;-63
2023/05/07 09:02:13;;;;;;;;;;;23.80;47.80;;;;;;1573931;74;1142;-62
2023/05/07 09:04:14;;;;;;;;;;;23.70;48.10;;;;;;1573361;74;1945;-63
2023/05/07 09:06:17;;;;;;;;;;;23.60;47.70;;;;;;1574689;74;1368;-63
2023/05/07 09:08:19;;;;;;;;;;;23.60;48.60;;;;;;1570204;74;1368;-62
2023/05/07 09:10:21;;;;;;;;;;;23.70;48.60;;;;;;1576313;74;1362;-63
2023/05/07 09:12:23;;;;;;;;;;;23.70;47.60;;;;;;1574884;74;1268;-63
2023/05/07 09:14:24;;;;;;;;;;;23.60;47.80;;;;;;1580933;74;1363;-63
2023/05/07 09:16:26;;;;;;;;;;;23.60;48.50;;;;;;1574050;74;1399;-63
2023/05/07 09:18:28;;;;;;;;;;;23.70;47.60;;;;;;1574159;74;1364;-60
2023/05/07 09:20:33;;;;;;;;;;;23.70;47.90;;;;;;1579064;74;1278;-64
2023/05/07 09:22:36;;;;;;;;;;;23.70;47.10;;;;;;1578722;74;1357;-63
2023/05/07 09:24:38;;;;;;;;;;;23.60;47.90;;;;;;1575065;74;1978;-63
2023/05/07 09:26:40;;;;;;;;;;;23.60;46.50;;;;;;1578815;74;1381;-60
2023/05/07 09:28:42;;;;;;;;;;;23.60;46.50;;;;;;1575215;74;1388;-60
2023/05/07 09:30:44;;;;;;;;;;;23.50;47.30;;;;;;1574121;74;1396;-64
2023/05/07 09:32:46;;;;;;;;;;;23.50;46.60;;;;;;1576360;74;1366;-63
2023/05/07 09:34:48;;;;;;;;;;;23.50;47.00;;;;;;1575274;74;1430;-64
2023/05/07 09:36:50;;;;;;;;;;;23.50;46.50;;;;;;1581304;74;1095;-61
2023/05/07 09:38:51;;;;;;;;;;;23.50;46.30;;;;;;1578062;74;1511;-63
2023/05/07 09:41:03;;;;;;;;;;;23.40;47.10;;;;;;1571327;74;1216;-63
2023/05/07 09:43:11;;;;;;;;;;;23.50;46.90;;;;;;1571067;74;1235;-63
2023/05/07 09:45:13;;;;;;;;;;;23.40;45.90;;;;;;1575791;74;1940;-61
2023/05/07 09:47:16;;;;;;;;;;;23.40;45.30;;;;;;1577154;73;1405;-62
2023/05/07 09:49:23;;;;;;;;;;;23.40;46.30;;;;;;1572760;74;1384;-64
2023/05/07 09:51:28;;;;;;;;;;;23.40;45.10;;;;;;1570757;75;1392;-62
2023/05/07 09:53:31;;;;;;;;;;;23.40;45.20;;;;;;1568341;74;1401;-63
2023/05/07 09:55:32;;;;;;;;;;;23.40;46.70;;;;;;1577877;74;1384;-63
2023/05/07 09:57:35;;;;;;;;;;;23.40;47.00;;;;;;1577548;74;1369;-63
2023/05/07 09:59:37;;;;;;;;;;;23.50;45.30;;;;;;1576796;74;1234;-62
2023/05/07 10:01:39;;;;;;;;;;;23.40;46.30;;;;;;1572752;74;1199;-62
2023/05/07 10:03:42;;;;;;;;;;;23.40;45.40;;;;;;1569047;74;1423;-63
2023/05/07 10:05:44;;;;;;;;;;;23.40;46.00;;;;;;1574495;74;1946;-62
2023/05/07 10:07:46;;;;;;;;;;;23.40;46.00;;;;;;1573824;74;1294;-62
2023/05/07 10:09:48;;;;;;;;;;;23.40;45.90;;;;;;1570818;74;1150;-62
2023/05/07 10:11:50;;;;;;;;;;;23.40;45.90;;;;;;1574873;74;1407;-62
2023/05/07 10:13:52;;;;;;;;;;;23.40;45.80;;;;;;1572880;74;1330;-61
2023/05/07 10:15:54;;;;;;;;;;;23.40;45.90;;;;;;1566113;74;1141;-61
2023/05/07 10:17:56;;;;;;;;;;;23.40;46.40;;;;;;1572912;74;1164;-65
2023/05/07 10:19:58;;;;;;;;;;;23.40;45.00;;;;;;1578777;74;1377;-63
2023/05/07 10:22:01;;;;;;;;;;;23.30;45.30;;;;;;1573783;74;1349;-65
2023/05/07 10:24:08;;;;;;;;;;;23.30;45.20;;;;;;1567618;75;1926;-63
2023/05/07 10:26:10;;;;;;;;;;;23.30;46.00;;;;;;1565687;74;1941;-65
2023/05/07 10:28:12;;;;;;;;;;;23.30;45.80;;;;;;1573929;74;1415;-64
2023/05/07 10:30:28;;;;;;;;;;;23.30;45.70;;;;;;1568909;74;1243;-64
2023/05/07 10:32:46;;;;;;;;;;;23.20;45.30;;;;;;1576585;74;1258;-65
2023/05/07 10:34:49;;;;;;;;;;;23.20;45.00;;;;;;1565086;74;1632;-65
2023/05/07 10:36:51;;;;;;;;;;;23.20;46.00;;;;;;1571935;74;1397;-65
2023/05/07 10:38:53;;;;;;;;;;;23.20;46.00;;;;;;1575517;74;1412;-65
2023/05/07 10:40:55;;;;;;;;;;;23.20;44.90;;;;;;1574255;74;1395;-66
2023/05/07 10:43:02;;;;;;;;;;;23.20;45.40;;;;;;1578350;74;1452;-63
2023/05/07 10:45:13;;;;;;;;;;;23.20;45.90;;;;;;1571686;74;1935;-66
2023/05/07 10:47:18;;;;;;;;;;;23.30;46.50;;;;;;1571508;74;1381;-66
2023/05/07 10:49:20;;;;;;;;;;;23.30;46.60;;;;;;1574663;74;1371;-67
2023/05/07 10:51:22;;;;;;;;;;;23.50;46.60;;;;;;1575491;74;1377;-66
2023/05/07 10:53:25;;;;;;;;;;;23.50;46.70;;;;;;1575978;74;1388;-65
2023/05/07 10:55:28;;;;;;;;;;;23.50;46.80;;;;;;1568463;74;1319;-66
2023/05/07 10:57:33;;;;;;;;;;;23.50;46.80;;;;;;1574794;74;1397;-68
2023/05/07 10:59:41;;;;;;;;;;;23.60;46.80;;;;;;1574811;74;1141;-67
2023/05/07 11:01:53;;;;;;;;;;;23.60;46.80;;;;;;1574216;74;1612;-67
2023/05/07 11:04:02;;;;;;;;;;;23.60;46.90;;;;;;1576427;74;1157;-69
2023/05/07 11:06:11;;;;;;;;;;;23.60;46.90;;;;;;1559310;74;1923;-71
2023/05/07 11:08:13;;;;;;;;;;;23.60;47.00;;;;;;1571266;74;1251;-69
2023/05/07 11:10:15;;;;;;;;;;;23.60;47.00;;;;;;1574882;74;1373;-70
2023/05/07 11:12:17;;;;;;;;;;;23.60;47.10;;;;;;1574379;74;1240;-67
2023/05/07 11:14:21;;;;;;;;;;;23.60;47.10;;;;;;1566078;74;1106;-69
2023/05/07 11:16:23;;;;;;;;;;;23.70;47.20;;;;;;1544557;74;1211;-69
2023/05/07 11:18:25;;;;;;;;;;;23.60;47.10;;;;;;1573993;74;1641;-70
2023/05/07 11:20:47;;;;;;;;;;;23.60;47.30;;;;;;1569607;74;1416;-68
2023/05/07 11:22:48;;;;;;;;;;;23.60;47.30;;;;;;1575274;74;1407;-70
2023/05/07 11:24:50;;;;;;;;;;;23.60;47.20;;;;;;1570622;74;1946;-70
2023/05/07 11:26:52;;;;;;;;;;;23.60;47.30;;;;;;1573313;74;1143;-70
2023/05/07 11:28:54;;;;;;;;;;;23.60;47.50;;;;;;1574173;73;1197;-70
2023/05/07 11:30:56;;;;;;;;;;;23.50;47.50;;;;;;1575064;74;1216;-67
2023/05/07 11:32:58;;;;;;;;;;;23.60;47.40;;;;;;1571556;75;1125;-68
2023/05/07 11:35:00;;;;;;;;;;;23.60;47.40;;;;;;1575529;74;1109;-70
2023/05/07 11:37:02;;;;;;;;;;;23.50;47.50;;;;;;1574104;74;1372;-69
2023/05/07 11:39:04;;;;;;;;;;;23.60;47.50;;;;;;1573575;74;1398;-70
2023/05/07 11:41:07;;;;;;;;;;;23.60;47.50;;;;;;1571426;75;1147;-71
2023/05/07 11:43:12;;;;;;;;;;;23.50;47.30;;;;;;1567312;74;1376;-71
2023/05/07 11:45:14;;;;;;;;;;;23.60;47.60;;;;;;1567159;74;1946;-70
2023/05/07 11:47:19;;;;;;;;;;;23.60;47.60;;;;;;1541598;76;1278;-69
2023/05/07 11:49:21;;;;;;;;;;;23.60;47.50;;;;;;1567825;74;1272;-69
2023/05/07 11:51:24;;;;;;;;;;;23.60;47.60;;;;;;1564049;74;1359;-70
2023/05/07 11:53:26;;;;;;;;;;;23.60;47.60;;;;;;1570906;74;1413;-72
2023/05/07 11:55:27;;;;;;;;;;;23.60;47.70;;;;;;1560830;74;1349;-70
2023/05/07 11:57:29;;;;;;;;;;;23.50;47.60;;;;;;1566325;74;1270;-68
2023/05/07 11:59:33;;;;;;;;;;;23.60;47.60;;;;;;1563240;74;1367;-69
2023/05/07 12:01:36;;;;;;;;;;;23.50;47.70;;;;;;1569400;74;1214;-70
2023/05/07 12:03:38;;;;;;;;;;;23.50;47.60;;;;;;1570356;74;1375;-69
2023/05/07 12:05:41;;;;;;;;;;;23.50;47.70;;;;;;1564914;75;2004;-69
2023/05/07 12:07:43;;;;;;;;;;;23.50;47.70;;;;;;1562247;74;1353;-69